Airfield :







YOU CAN JOIN US ON...

 
LOGIN :

Register | Disclaimer

   EN    FR    IT 

 









Legend :    VFR   Marginal VFR   IFR   Intensive IFR   Very Intensive IFR
Visi :
Ceiling :
>= 8 km
>= 3000ft
5 to 8 km
1000 to 3000 ft
1500m to 5 km
500 to 1000 ft
800 to 1500m
200 to 500 ft
< 800m
< 200 ft
Symbols :   Thunderstorms  Fog  Heavy snow  Heavy precipitations  Wind > 20 kt







- Airport Elevation : 100 ft
- IATA code : PSM


KPSM - Portsmouth International at Pease

CURRENT METAR :
  • 190456Z 00000KT 10SM BKN070 M03/M11 A3027 RMK AO2A SLP254 T10331111 400421048

EXPIRED METARs :
  • 190356Z 00000KT 10SM FEW070 M04/M10 A3027 RMK AO2A SLP254 T10371103
  • 190256Z 00000KT 10SM CLR M02/M13 A3028 RMK AO2A SLP257 T10231135 52015

TAF KPSM
Valid from the 19 at 06:00 until the 20 at 06:00 UTC


190534Z 1906/2006 32005KT P6SM FEW080
KZBW FIR / North America



MET'MAP, your aeronautical weather chart ! - Copyright ORBIFLY December 2007 - Disclaimer

ORBIFLY MET'MAP TEAM :

Programming & Development : Alexandra Zaïnal
Concept & Development : Baudouin d'Aumeries
Co-Development & Prog : Marc-Olivier Méhu
Technical & hardware support : Manuel Goepfert

Contact : metmap@orbifly.com




SOURCES & CREDITS :

   NOAA